Time;durP1;ratioP1;P1;durP2;ratioP2;P2;SDS_P1;SDS_P2;PMS_P1;PMS_P2;Temp;Humidity;BMP_temperature;BMP_pressure;BME280_temperature;BME280_humidity;BME280_pressure;Samples;Min_cycle;Max_cycle;Signal;HPM_P1;HPM_P2
2021/12/16 04:03:05;;;;;;;126.38;50.53;;;8.80;95.10;;;;;;5091281;27;20352;-48
2021/12/16 04:05:31;;;;;;;139.32;54.90;;;8.80;95.10;;;;;;5090546;28;20055;-50
2021/12/16 04:07:56;;;;;;;132.65;53.88;;;8.80;95.10;;;;;;5089111;28;20028;-50
2021/12/16 04:10:34;;;;;;;135.10;50.80;;;8.80;95.00;;;;;;5090757;28;20025;-51
2021/12/16 04:13:03;;;;;;;131.27;52.30;;;8.80;94.80;;;;;;5090388;28;20056;-54
2021/12/16 04:15:29;;;;;;;133.13;50.90;;;8.80;94.80;;;;;;5089032;28;20024;-51
2021/12/16 04:17:55;;;;;;;118.32;47.92;;;8.90;94.70;;;;;;5090670;28;20017;-55
2021/12/16 04:20:21;;;;;;;109.28;45.90;;;9.00;94.70;;;;;;5090240;28;20111;-51
2021/12/16 04:22:47;;;;;;;132.35;54.28;;;8.90;94.70;;;;;;5090048;28;20028;-50
2021/12/16 04:25:22;;;;;;;132.10;54.08;;;9.00;94.80;;;;;;5090427;28;20028;-52
2021/12/16 04:27:53;;;;;;;127.75;51.17;;;9.10;94.70;;;;;;5090377;28;20021;-52
2021/12/16 04:30:22;;;;;;;126.63;49.03;;;9.10;94.30;;;;;;5090049;28;20028;-52
2021/12/16 04:32:48;;;;;;;119.55;49.70;;;9.10;94.20;;;;;;5090136;28;20488;-51
2021/12/16 04:35:14;;;;;;;122.38;49.38;;;9.10;94.30;;;;;;5090262;28;20035;-50
2021/12/16 04:37:40;;;;;;;117.13;47.13;;;9.10;94.40;;;;;;5089879;28;20034;-49
2021/12/16 04:40:09;;;;;;;116.18;46.60;;;9.00;94.30;;;;;;5088970;28;20392;-49
2021/12/16 04:42:38;;;;;;;114.70;45.65;;;9.00;94.20;;;;;;5090030;28;20082;-51
2021/12/16 04:45:07;;;;;;;103.13;46.60;;;9.10;94.30;;;;;;5090080;28;20024;-48
2021/12/16 04:47:33;;;;;;;116.80;47.42;;;9.00;94.20;;;;;;5089906;28;20021;-49
2021/12/16 04:49:59;;;;;;;112.50;46.03;;;9.00;94.40;;;;;;5089568;28;20021;-50
2021/12/16 04:52:25;;;;;;;116.32;47.15;;;9.00;94.10;;;;;;5089658;28;20028;-52
2021/12/16 04:54:51;;;;;;;122.13;45.95;;;9.00;94.10;;;;;;5089766;28;20032;-51
2021/12/16 04:57:17;;;;;;;103.05;44.20;;;8.90;94.30;;;;;;5089687;28;20035;-51
2021/12/16 04:59:43;;;;;;;112.80;47.75;;;8.80;94.50;;;;;;5089805;28;20029;-54
2021/12/16 05:02:16;;;;;;;111.45;45.83;;;8.80;94.50;;;;;;5089323;28;20052;-50
2021/12/16 05:04:42;;;;;;;120.55;49.80;;;8.80;94.60;;;;;;5089979;28;20134;-49
2021/12/16 05:07:09;;;;;;;121.60;49.50;;;8.80;94.60;;;;;;5089365;28;20056;-53
2021/12/16 05:12:17;;;;;;;105.78;44.75;;;8.80;94.80;;;;;;5088626;28;20028;-50
2021/12/16 05:14:45;;;;;;;114.35;48.78;;;8.70;94.90;;;;;;5075515;28;20107;-49
2021/12/16 05:17:23;;;;;;;127.90;50.00;;;8.60;95.00;;;;;;5075938;28;20036;-49
2021/12/16 05:19:51;;;;;;;125.30;49.70;;;8.60;95.00;;;;;;5076325;28;20031;-49
2021/12/16 05:25:17;;;;;;;108.40;48.70;;;8.60;95.10;;;;;;5075962;28;20491;-49
2021/12/16 05:27:43;;;;;;;113.20;47.58;;;8.60;95.10;;;;;;5074817;28;20020;-50
2021/12/16 05:30:09;;;;;;;129.32;49.22;;;8.70;95.10;;;;;;5075631;28;20027;-48
2021/12/16 05:32:35;;;;;;;115.32;48.30;;;8.80;95.10;;;;;;5075595;28;20036;-50
2021/12/16 05:35:00;;;;;;;125.28;51.63;;;8.80;94.90;;;;;;5075754;28;20029;-50
2021/12/16 05:37:26;;;;;;;133.02;50.67;;;8.90;94.50;;;;;;5075688;28;20060;-49
2021/12/16 05:39:51;;;;;;;131.07;50.60;;;8.80;94.40;;;;;;5075830;28;20059;-52
2021/12/16 05:42:17;;;;;;;124.63;51.30;;;8.80;94.50;;;;;;5075472;28;20024;-53
2021/12/16 05:44:43;;;;;;;129.80;51.22;;;8.70;94.60;;;;;;5075521;28;20044;-53
2021/12/16 05:47:09;;;;;;;141.05;55.20;;;8.70;94.80;;;;;;5075557;28;20044;-48
2021/12/16 05:49:35;;;;;;;133.82;54.40;;;8.80;94.80;;;;;;5074123;28;20054;-50
2021/12/16 05:52:00;;;;;;;127.47;54.25;;;8.70;94.50;;;;;;5075553;28;20024;-49
2021/12/16 05:54:26;;;;;;;133.35;52.47;;;8.70;94.70;;;;;;5075181;28;20020;-48
2021/12/16 05:56:52;;;;;;;132.27;52.05;;;8.60;94.80;;;;;;5075385;28;20021;-50
2021/12/16 05:59:19;;;;;;;114.22;49.00;;;8.50;94.90;;;;;;5075645;28;20024;-37
2021/12/16 06:01:46;;;;;;;132.80;54.22;;;8.50;95.00;;;;;;5057186;28;20040;-39
2021/12/16 06:04:13;;;;;;;149.95;54.05;;;8.40;95.20;;;;;;5075531;28;20024;-40
2021/12/16 06:06:41;;;;;;;151.55;54.95;;;8.30;95.20;;;;;;5074899;28;20021;-38
2021/12/16 06:09:09;;;;;;;128.75;53.47;;;8.30;95.30;;;;;;5073609;28;20097;-39
2021/12/16 06:11:36;;;;;;;148.73;57.65;;;8.30;95.40;;;;;;5073414;28;20029;-38
2021/12/16 06:27:47;;;;;;;146.68;56.50;;;8.10;96.00;;;;;;5075261;28;20071;-39
2021/12/16 06:30:16;;;;;;;126.13;50.10;;;8.10;96.00;;;;;;5074857;28;20074;-39
2021/12/16 06:32:42;;;;;;;142.15;56.15;;;8.00;96.10;;;;;;5073534;28;20033;-39
2021/12/16 06:35:09;;;;;;;154.27;57.50;;;8.00;96.20;;;;;;5074196;28;20039;-39
2021/12/16 06:37:35;;;;;;;162.07;55.28;;;8.10;96.30;;;;;;5072515;28;20032;-39
2021/12/16 06:40:03;;;;;;;154.98;57.50;;;8.20;96.20;;;;;;5073723;28;20029;-38
2021/12/16 06:42:29;;;;;;;168.63;58.80;;;8.10;96.20;;;;;;5073450;28;20032;-39
2021/12/16 06:45:12;;;;;;;174.43;61.15;;;8.20;96.20;;;;;;5073882;28;20025;-39
2021/12/16 06:47:46;;;;;;;167.50;60.10;;;8.30;96.20;;;;;;5073720;28;20069;-39
2021/12/16 06:50:23;;;;;;;161.82;57.25;;;8.30;96.10;;;;;;5073732;28;20434;-39
2021/12/16 06:52:49;;;;;;;155.75;59.17;;;8.30;96.00;;;;;;5073537;28;20125;-39
2021/12/16 06:55:27;;;;;;;179.52;60.67;;;8.30;96.00;;;;;;5072241;28;20024;-39
2021/12/16 06:57:55;;;;;;;153.85;56.70;;;8.30;96.10;;;;;;5073867;28;20035;-39
2021/12/16 07:00:41;;;;;;;176.63;60.63;;;8.50;96.10;;;;;;5073112;28;20043;-39
2021/12/16 07:03:17;;;;;;;153.88;57.58;;;8.60;95.90;;;;;;5073526;28;20049;-39
2021/12/16 07:05:43;;;;;;;146.80;57.22;;;8.70;95.80;;;;;;5073454;28;20420;-39
2021/12/16 07:08:16;;;;;;;142.75;56.05;;;8.50;95.70;;;;;;5073146;28;20024;-38
2021/12/16 07:10:45;;;;;;;146.38;60.13;;;8.60;95.70;;;;;;5073482;28;20078;-38
2021/12/16 07:13:18;;;;;;;160.18;57.22;;;8.80;95.90;;;;;;5073155;28;20097;-39
2021/12/16 07:15:48;;;;;;;132.57;54.63;;;8.80;95.60;;;;;;5073462;28;20020;-38
2021/12/16 07:18:14;;;;;;;131.73;54.30;;;8.80;95.50;;;;;;5072947;28;20396;-39
2021/12/16 07:20:40;;;;;;;126.10;51.25;;;8.80;95.40;;;;;;5073012;28;20397;-38
2021/12/16 07:23:07;;;;;;;128.75;52.42;;;8.90;95.20;;;;;;5072050;28;20021;-39
2021/12/16 07:25:34;;;;;;;129.10;50.63;;;8.90;95.10;;;;;;5072877;28;20024;-40
2021/12/16 07:28:03;;;;;;;124.97;49.83;;;9.00;94.90;;;;;;5072847;28;20028;-39
2021/12/16 07:30:29;;;;;;;117.57;50.53;;;8.80;94.70;;;;;;5073102;28;20055;-39
2021/12/16 07:32:55;;;;;;;122.35;45.50;;;8.80;95.00;;;;;;5072749;28;20060;-39
2021/12/16 07:35:24;;;;;;;111.40;48.53;;;8.80;95.10;;;;;;5071588;28;20134;-39
2021/12/16 07:37:50;;;;;;;124.28;47.83;;;8.60;95.30;;;;;;5071161;28;20437;-39
2021/12/16 07:40:18;;;;;;;119.72;51.92;;;8.70;95.50;;;;;;5073004;28;20419;-39
2021/12/16 07:42:48;;;;;;;123.50;51.38;;;8.70;95.50;;;;;;5072600;28;20039;-41
2021/12/16 07:45:18;;;;;;;125.28;50.33;;;8.60;95.50;;;;;;5072423;28;20099;-39
2021/12/16 07:47:45;;;;;;;135.20;53.50;;;8.70;95.60;;;;;;5073013;28;20029;-40
2021/12/16 07:50:12;;;;;;;128.30;51.65;;;8.70;95.60;;;;;;5071568;28;20031;-39
2021/12/16 07:52:40;;;;;;;135.98;50.53;;;8.70;95.70;;;;;;5055043;28;20059;-39
2021/12/16 07:55:07;;;;;;;131.88;50.03;;;8.70;95.60;;;;;;5072840;28;20538;-38
2021/12/16 07:57:33;;;;;;;141.13;54.58;;;8.70;95.60;;;;;;5072854;28;20029;-41
2021/12/16 07:59:59;;;;;;;135.75;53.90;;;8.60;95.70;;;;;;5073306;28;20028;-39
2021/12/16 14:03:13;;;;;;;188.68;63.08;;;9.60;92.90;;;;;;5070097;28;20364;-40
2021/12/16 14:06:26;;;;;;;202.82;67.90;;;9.60;93.20;;;;;;5070077;28;20032;-40
2021/12/16 14:08:47;;;;;;;181.50;62.40;;;9.60;93.10;;;;;;5067588;28;20037;-42
2021/12/16 14:14:43;;;;;;;182.30;61.40;;;9.80;92.80;;;;;;5070518;28;20127;-39
2021/12/16 14:17:46;;;;;;;179.57;64.55;;;9.80;92.70;;;;;;5069956;28;20036;-39
2021/12/16 14:23:26;;;;;;;175.15;62.67;;;9.70;92.90;;;;;;5069844;28;20039;-40
2021/12/16 14:31:45;;;;;;;165.70;56.95;;;9.90;92.60;;;;;;5069714;28;20105;-40
2021/12/16 14:42:17;;;;;;;169.57;61.53;;;9.80;92.70;;;;;;5069836;28;20029;-39
2021/12/16 14:47:56;;;;;;;;;;;9.80;92.40;;;;;;5070295;28;20120;-40
2021/12/16 14:50:28;;;;;;;177.50;58.00;;;9.80;92.40;;;;;;5069010;28;19905;-39
2021/12/16 14:52:56;;;;;;;164.63;58.92;;;9.80;92.40;;;;;;5069137;28;20029;-38
2021/12/16 14:55:23;;;;;;;155.68;57.33;;;9.70;92.60;;;;;;5068524;28;20106;-39
2021/12/16 14:57:53;;;;;;;157.90;59.47;;;9.80;92.60;;;;;;5067279;28;20498;-39
2021/12/16 15:00:23;;;;;;;;;;;9.80;92.70;;;;;;5070023;28;20090;-39
2021/12/16 15:03:03;;;;;;;144.68;59.92;;;9.70;92.60;;;;;;5067774;28;20007;-40
2021/12/16 15:05:33;;;;;;;160.15;56.22;;;9.60;92.80;;;;;;5069508;28;20033;-39
2021/12/16 15:08:04;;;;;;;178.43;58.60;;;9.70;92.90;;;;;;5069188;28;20078;-39
2021/12/16 15:10:30;;;;;;;167.20;62.53;;;9.70;92.80;;;;;;5069049;28;20098;-38
2021/12/16 15:13:04;;;;;;;184.05;64.60;;;9.80;92.70;;;;;;5063842;28;20033;-39
2021/12/16 15:15:39;;;;;;;179.70;62.92;;;9.70;92.60;;;;;;5055258;28;20507;-40
2021/12/16 15:40:36;;;;;;;195.38;65.05;;;9.50;93.40;;;;;;5055152;28;20450;-54
2021/12/16 15:43:06;;;;;;;199.18;65.97;;;9.40;93.60;;;;;;5054671;28;20025;-50
2021/12/16 15:45:34;;;;;;;181.93;65.47;;;9.40;93.70;;;;;;5054696;28;20031;-53
2021/12/16 15:48:01;;;;;;;183.40;58.00;;;9.50;93.60;;;;;;5054921;28;20488;-52
2021/12/16 15:50:40;;;;;;;197.65;64.70;;;9.40;93.70;;;;;;5054715;28;20039;-49
2021/12/16 15:53:10;;;;;;;178.35;66.88;;;9.50;93.70;;;;;;5054529;28;20021;-52
2021/12/16 15:55:41;;;;;;;173.57;65.72;;;9.50;93.20;;;;;;5054533;28;20056;-50
2021/12/16 15:58:15;;;;;;;195.18;67.38;;;9.40;93.30;;;;;;5054319;28;20036;-50
2021/12/16 16:00:44;;;;;;;192.63;66.18;;;9.50;93.50;;;;;;5054260;28;20017;-53
2021/12/16 16:03:13;;;;;;;191.32;65.00;;;9.50;93.60;;;;;;5054103;28;20025;-51
2021/12/16 16:05:50;;;;;;;193.57;68.93;;;9.50;93.20;;;;;;5052358;28;20024;-52
2021/12/16 16:08:18;;;;;;;185.23;66.20;;;9.40;93.50;;;;;;5053789;28;20078;-50
2021/12/16 16:10:47;;;;;;;194.45;66.82;;;9.40;93.60;;;;;;5054030;28;20021;-49
2021/12/16 16:13:21;;;;;;;202.60;64.97;;;9.50;93.50;;;;;;5054213;28;20017;-50
2021/12/16 16:15:49;;;;;;;181.18;65.60;;;9.50;93.60;;;;;;5054403;28;20050;-54
2021/12/16 16:21:04;;;;;;;209.15;68.10;;;9.60;93.40;;;;;;5054474;28;20021;-54
2021/12/16 16:23:33;;;;;;;208.38;65.82;;;9.70;93.40;;;;;;5053828;28;20060;-53
2021/12/16 16:26:04;;;;;;;199.55;64.93;;;9.60;93.20;;;;;;5053107;28;20221;-52
2021/12/16 16:28:29;;;;;;;;;;;9.50;93.30;;;;;;5054309;28;20020;-52
2021/12/16 16:30:55;;;;;;;165.38;57.55;;;9.40;93.40;;;;;;5053834;28;19911;-52
2021/12/16 16:33:23;;;;;;;174.32;59.72;;;9.40;93.60;;;;;;5053691;28;20096;-52
2021/12/16 16:35:51;;;;;;;180.60;64.25;;;9.30;93.60;;;;;;5053881;28;20461;-49
2021/12/16 16:38:21;;;;;;;169.57;62.47;;;9.30;93.90;;;;;;5052854;28;20155;-53
2021/12/16 16:40:50;;;;;;;177.68;60.25;;;9.30;93.90;;;;;;5054518;28;20067;-51
2021/12/16 16:43:22;;;;;;;159.18;58.25;;;9.30;94.00;;;;;;5054209;28;20028;-52
2021/12/16 16:45:50;;;;;;;172.88;59.40;;;9.30;94.00;;;;;;5053921;28;20100;-53
2021/12/16 16:48:31;;;;;;;191.75;64.40;;;9.30;94.10;;;;;;5052630;28;20029;-53
2021/12/16 16:51:09;;;;;;;156.95;60.22;;;9.30;93.80;;;;;;5052981;28;20063;-51
2021/12/16 16:53:58;;;;;;;170.50;60.38;;;9.40;94.00;;;;;;5052234;28;20048;-52
2021/12/16 16:56:45;;;;;;;175.13;56.47;;;9.40;94.00;;;;;;5053633;28;20115;-51
2021/12/16 16:59:18;;;;;;;169.88;61.17;;;9.60;93.70;;;;;;5053841;28;20087;-50
2021/12/16 17:01:45;;;;;;;167.90;60.58;;;9.60;93.40;;;;;;5053788;28;20131;-54
2021/12/16 17:04:14;;;;;;;178.60;57.25;;;9.50;93.30;;;;;;5053548;28;20025;-53
2021/12/16 17:06:50;;;;;;;162.77;56.47;;;9.60;93.40;;;;;;5053471;28;20029;-54
2021/12/16 17:09:17;;;;;;;145.90;55.28;;;9.70;93.10;;;;;;5054059;28;20043;-52
2021/12/16 17:11:48;;;;;;;119.88;45.22;;;9.50;92.90;;;;;;5053658;28;20083;-53
2021/12/16 17:14:19;;;;;;;112.18;43.15;;;9.80;93.20;;;;;;5053686;28;20112;-53
2021/12/16 17:19:41;;;;;;;105.10;46.90;;;9.80;91.70;;;;;;5053732;28;20063;-50
2021/12/16 17:22:35;;;;;;;101.07;42.65;;;9.80;91.90;;;;;;5053530;28;20032;-50
2021/12/16 17:25:00;;;;;;;92.00;41.85;;;10.00;91.70;;;;;;5053761;28;20483;-51
2021/12/16 17:27:34;;;;;;;91.68;41.70;;;9.80;91.50;;;;;;5035603;28;20112;-53
2021/12/16 17:30:07;;;;;;;86.07;35.25;;;9.60;91.90;;;;;;5052423;28;20017;-53
2021/12/16 17:32:33;;;;;;;86.65;35.63;;;9.50;92.70;;;;;;5054005;28;20032;-53
2021/12/16 17:35:14;;;;;;;87.20;37.45;;;9.40;92.90;;;;;;5053379;28;20417;-50
2021/12/16 17:37:46;;;;;;;83.22;39.65;;;9.50;93.30;;;;;;5051346;28;20115;-51
2021/12/16 17:40:20;;;;;;;76.40;35.17;;;9.50;93.10;;;;;;5051471;28;20488;-49
2021/12/16 17:42:54;;;;;;;65.85;33.42;;;9.40;93.10;;;;;;5052665;28;20032;-50
2021/12/16 17:45:32;;;;;;;79.68;35.85;;;9.40;93.00;;;;;;5053982;28;20059;-49
2021/12/16 17:48:01;;;;;;;82.05;37.00;;;9.60;93.00;;;;;;5054360;28;20048;-48
2021/12/16 17:50:49;;;;;;;86.00;37.28;;;9.60;92.50;;;;;;5054303;28;20037;-49
2021/12/16 17:53:16;;;;;;;75.35;32.70;;;9.50;92.50;;;;;;5053409;28;20029;-50
2021/12/16 17:55:45;;;;;;;81.68;37.25;;;9.60;93.00;;;;;;5054485;28;20021;-50
2021/12/16 17:58:15;;;;;;;82.72;38.85;;;9.80;92.20;;;;;;5055097;28;20025;-52
2021/12/16 18:00:49;;;;;;;86.50;39.97;;;9.90;91.70;;;;;;5052631;28;20025;-51
2021/12/16 18:03:23;;;;;;;102.13;42.10;;;9.80;91.40;;;;;;5054437;28;20418;-53
2021/12/16 18:05:51;;;;;;;101.95;44.92;;;9.80;91.90;;;;;;5052202;28;20029;-51
2021/12/16 18:08:36;;;;;;;102.40;42.35;;;9.80;91.60;;;;;;5053539;28;20127;-51
2021/12/16 18:11:26;;;;;;;89.65;37.45;;;9.70;92.10;;;;;;5053014;28;20021;-52
2021/12/16 18:13:59;;;;;;;99.80;40.97;;;9.60;92.00;;;;;;5053039;28;20044;-51
2021/12/16 18:16:36;;;;;;;97.50;40.75;;;9.60;92.70;;;;;;5053679;28;20068;-52
2021/12/16 18:19:20;;;;;;;104.65;41.50;;;9.60;92.60;;;;;;5053811;28;20496;-54
2021/12/16 18:21:50;;;;;;;109.57;42.78;;;9.70;92.40;;;;;;5052825;28;20156;-53
2021/12/16 18:24:19;;;;;;;108.90;45.33;;;9.70;92.40;;;;;;5052589;28;20021;-54
2021/12/16 18:26:49;;;;;;;117.90;46.42;;;9.70;92.40;;;;;;5052751;28;20168;-50
2021/12/16 18:29:15;;;;;;;121.00;45.88;;;9.70;92.30;;;;;;5053897;28;20077;-50
2021/12/16 18:31:44;;;;;;;122.22;46.50;;;9.50;92.30;;;;;;5053984;28;20024;-51
2021/12/16 18:34:17;;;;;;;116.15;46.33;;;9.50;92.90;;;;;;5052397;28;20029;-53
2021/12/16 18:36:45;;;;;;;122.63;46.40;;;9.40;92.80;;;;;;5052789;28;20032;-49
2021/12/16 18:39:19;;;;;;;112.97;41.80;;;9.40;93.00;;;;;;5054376;28;20102;-49
2021/12/16 18:41:58;;;;;;;108.72;42.25;;;9.40;93.20;;;;;;5054133;28;20398;-52
2021/12/16 18:44:36;;;;;;;123.65;43.15;;;9.40;93.10;;;;;;5054095;28;20017;-51
2021/12/16 18:47:22;;;;;;;123.65;44.22;;;9.50;92.90;;;;;;5054091;28;20021;-51
2021/12/16 18:49:51;;;;;;;122.90;45.50;;;9.50;93.10;;;;;;5057873;28;20025;-51
2021/12/16 18:55:16;;;;;;;113.90;42.47;;;9.60;92.60;;;;;;5049184;28;20029;-53
2021/12/16 18:57:42;;;;;;;127.38;47.90;;;9.60;92.60;;;;;;5059843;28;20107;-53
2021/12/16 19:00:11;;;;;;;127.30;47.25;;;9.70;92.30;;;;;;5063131;28;20481;-53
2021/12/16 19:02:37;;;;;;;130.18;47.72;;;9.60;92.40;;;;;;5060471;28;20374;-51
2021/12/16 19:05:04;;;;;;;132.23;48.67;;;9.60;92.50;;;;;;5060862;28;20039;-54
2021/12/16 19:07:32;;;;;;;135.15;48.88;;;9.60;92.30;;;;;;5060528;28;20025;-52
2021/12/16 19:09:59;;;;;;;127.32;48.58;;;9.70;92.50;;;;;;5059345;28;20038;-49
2021/12/16 19:12:32;;;;;;;135.90;48.28;;;9.60;92.30;;;;;;5059807;28;20021;-53
2021/12/16 19:15:07;;;;;;;132.40;48.28;;;9.70;92.30;;;;;;5059727;28;20043;-52
2021/12/16 19:17:34;;;;;;;133.18;49.67;;;9.60;92.40;;;;;;5061002;28;20496;-54
2021/12/16 19:20:01;;;;;;;129.07;46.47;;;9.50;92.40;;;;;;5059449;28;20032;-53
2021/12/16 19:22:27;;;;;;;133.45;49.90;;;9.50;92.40;;;;;;5058447;28;20094;-49
2021/12/16 19:24:54;;;;;;;161.57;55.83;;;9.50;92.50;;;;;;5058713;28;20028;-51
2021/12/16 19:27:21;;;;;;;157.98;52.40;;;9.50;92.60;;;;;;5057744;28;20052;-53
2021/12/16 19:29:52;;;;;;;166.80;53.78;;;9.50;92.80;;;;;;5059686;28;20059;-51
2021/12/16 19:32:20;;;;;;;148.40;50.53;;;9.40;92.90;;;;;;5060011;28;20093;-53
2021/12/16 19:34:48;;;;;;;166.98;53.40;;;9.40;92.90;;;;;;5058119;28;20028;-52
2021/12/16 19:37:15;;;;;;;168.40;54.78;;;9.50;92.90;;;;;;5060450;28;20473;-50
2021/12/16 19:39:41;;;;;;;161.93;55.10;;;9.50;92.70;;;;;;5057648;28;20024;-49
2021/12/16 19:42:08;;;;;;;154.13;51.85;;;9.50;92.70;;;;;;5058811;28;20108;-49
2021/12/16 19:44:34;;;;;;;139.48;51.78;;;9.60;92.50;;;;;;5057887;28;20031;-49
2021/12/16 19:47:00;;;;;;;160.57;56.95;;;9.50;92.40;;;;;;5056490;28;20024;-53
2021/12/16 19:49:29;;;;;;;154.48;52.28;;;9.40;92.70;;;;;;5055993;28;20024;-54
2021/12/16 19:51:57;;;;;;;157.57;52.05;;;9.40;92.80;;;;;;5058005;28;20040;-51
2021/12/16 19:54:23;;;;;;;156.30;52.50;;;9.40;92.80;;;;;;5057116;28;20089;-52
2021/12/16 19:56:53;;;;;;;164.30;54.90;;;9.40;92.90;;;;;;5059930;28;20048;-55
2021/12/16 19:59:19;;;;;;;167.00;52.93;;;9.40;93.10;;;;;;5059168;28;20021;-52
2021/12/16 20:01:46;;;;;;;161.70;52.00;;;9.50;92.90;;;;;;5058366;28;20072;-50
2021/12/16 20:04:22;;;;;;;150.00;50.45;;;9.40;92.70;;;;;;5058639;28;20013;-54
2021/12/16 20:06:51;;;;;;;132.35;47.63;;;9.30;93.00;;;;;;5060141;28;20103;-51
2021/12/16 20:09:23;;;;;;;143.98;49.08;;;9.40;93.20;;;;;;5055532;28;20071;-50
2021/12/16 20:11:56;;;;;;;143.77;48.80;;;9.50;93.00;;;;;;5054950;28;20029;-52
2021/12/16 20:14:23;;;;;;;151.32;51.03;;;9.40;93.00;;;;;;5054689;28;20116;-52
2021/12/16 20:16:54;;;;;;;149.23;52.00;;;9.60;93.00;;;;;;5052978;28;20032;-51
2021/12/16 20:19:22;;;;;;;143.55;49.50;;;9.60;92.70;;;;;;5054800;28;20444;-50
2021/12/16 20:21:56;;;;;;;151.27;54.92;;;9.60;92.60;;;;;;5054248;28;20040;-51
2021/12/16 20:24:26;;;;;;;144.05;48.83;;;9.60;92.60;;;;;;5054188;28;20028;-52
2021/12/16 20:27:09;;;;;;;158.75;52.10;;;9.50;92.70;;;;;;5054425;28;20439;-50
2021/12/16 20:29:57;;;;;;;160.40;52.95;;;9.50;92.90;;;;;;5054649;28;20380;-52
2021/12/16 20:32:36;;;;;;;157.45;52.63;;;9.50;92.80;;;;;;5054082;28;20052;-50
2021/12/16 20:35:18;;;;;;;157.38;51.90;;;9.50;92.90;;;;;;5054224;28;20036;-49
2021/12/16 20:37:44;;;;;;;159.13;53.85;;;9.50;92.90;;;;;;5052766;28;20029;-53
2021/12/16 20:40:21;;;;;;;146.02;52.53;;;9.50;93.00;;;;;;5054172;28;20032;-53
2021/12/16 20:42:50;;;;;;;153.93;47.53;;;9.50;93.10;;;;;;5052910;28;20028;-50
2021/12/16 20:45:25;;;;;;;138.27;48.35;;;9.50;93.10;;;;;;5053721;28;20032;-51
2021/12/16 20:47:56;;;;;;;141.60;49.35;;;9.40;92.90;;;;;;5054044;28;20017;-52
2021/12/16 20:50:29;;;;;;;140.40;51.75;;;9.50;92.80;;;;;;5054149;28;20028;-52
2021/12/16 20:52:55;;;;;;;139.82;49.75;;;9.50;93.10;;;;;;5054014;28;20429;-49
2021/12/16 20:55:24;;;;;;;130.23;48.15;;;9.60;92.80;;;;;;5053545;28;20028;-49
2021/12/16 20:57:55;;;;;;;154.38;54.08;;;9.60;92.80;;;;;;5052682;28;20158;-51
2021/12/16 21:00:25;;;;;;;137.95;46.67;;;9.60;92.70;;;;;;5054230;28;20029;-48
2021/12/16 21:02:52;;;;;;;136.75;47.00;;;9.60;92.60;;;;;;5053552;28;20071;-48
2021/12/16 21:05:25;;;;;;;142.40;47.92;;;9.60;92.60;;;;;;5052436;28;20032;-50
2021/12/16 21:07:51;;;;;;;137.25;46.17;;;9.60;92.50;;;;;;5053625;28;20036;-53
2021/12/16 21:10:17;;;;;;;120.00;43.83;;;9.70;92.50;;;;;;5052196;28;20507;-50
2021/12/16 21:12:43;;;;;;;107.70;40.85;;;9.50;92.20;;;;;;5053344;28;20036;-50
2021/12/16 21:15:10;;;;;;;117.35;43.10;;;9.50;92.30;;;;;;5053529;28;20067;-54
2021/12/16 21:17:37;;;;;;;108.43;41.85;;;9.50;92.50;;;;;;5053384;28;20142;-48
2021/12/16 21:20:08;;;;;;;106.55;43.47;;;9.50;92.80;;;;;;5053660;28;20029;-51
2021/12/16 21:22:35;;;;;;;112.32;40.78;;;9.60;92.70;;;;;;5053786;28;20354;-50
2021/12/16 21:25:03;;;;;;;104.25;41.25;;;9.60;92.20;;;;;;5053421;28;20052;-49
2021/12/16 21:27:30;;;;;;;109.03;43.50;;;9.50;92.50;;;;;;5053606;28;20083;-51
2021/12/16 21:29:56;;;;;;;111.38;42.47;;;9.50;92.20;;;;;;5053479;28;20035;-52
2021/12/16 21:32:22;;;;;;;114.03;43.47;;;9.60;92.60;;;;;;5053761;28;20017;-52
2021/12/16 21:34:58;;;;;;;108.20;42.15;;;9.50;92.20;;;;;;5053442;28;20385;-49
2021/12/16 21:37:23;;;;;;;102.07;40.67;;;9.30;92.30;;;;;;5053626;28;20410;-50
2021/12/16 21:39:50;;;;;;;107.63;40.83;;;9.50;92.90;;;;;;5053239;28;20078;-49
2021/12/16 21:42:25;;;;;;;115.57;41.90;;;9.70;92.40;;;;;;5053152;28;20469;-52
2021/12/16 21:44:51;;;;;;;106.00;40.92;;;9.60;92.30;;;;;;5053162;28;20024;-50
2021/12/16 21:47:17;;;;;;;102.82;41.60;;;9.60;92.30;;;;;;5052920;28;20473;-50
2021/12/16 21:49:43;;;;;;;101.10;39.10;;;9.60;92.30;;;;;;5053831;28;20044;-49
2021/12/16 21:52:08;;;;;;;102.40;43.13;;;9.30;92.20;;;;;;5052956;28;20086;-51
2021/12/16 21:54:34;;;;;;;93.95;39.03;;;9.30;92.80;;;;;;5053195;28;20112;-50
2021/12/16 21:57:00;;;;;;;97.93;38.78;;;9.40;93.30;;;;;;5053827;28;20559;-52
2021/12/16 21:59:26;;;;;;;88.35;35.97;;;9.50;92.50;;;;;;5052988;28;20384;-48
2021/12/16 22:01:53;;;;;;;84.90;37.13;;;9.40;92.50;;;;;;5052570;28;20041;-49
2021/12/16 22:04:24;;;;;;;96.78;37.13;;;9.70;92.50;;;;;;5052067;28;20021;-48
2021/12/16 22:06:50;;;;;;;91.75;38.47;;;9.70;91.80;;;;;;5052794;28;20028;-48
2021/12/16 22:09:16;;;;;;;90.97;38.33;;;9.50;91.70;;;;;;5052703;28;20033;-53
2021/12/16 22:11:41;;;;;;;97.90;39.95;;;9.60;92.10;;;;;;5052915;28;20107;-48
2021/12/16 22:14:07;;;;;;;98.03;40.13;;;9.70;92.10;;;;;;5052665;28;20103;-53
2021/12/16 22:16:38;;;;;;;99.15;41.35;;;9.70;91.80;;;;;;5052598;28;20037;-52
2021/12/16 22:19:09;;;;;;;85.30;36.65;;;9.40;92.00;;;;;;5052677;28;20025;-49
2021/12/16 22:21:41;;;;;;;91.00;38.13;;;9.40;92.40;;;;;;5052623;28;20040;-49
2021/12/16 22:24:08;;;;;;;87.50;36.92;;;9.40;92.60;;;;;;5056103;28;20059;-51
2021/12/16 22:26:35;;;;;;;88.50;35.70;;;9.30;92.80;;;;;;5056908;28;20029;-49
2021/12/16 22:29:04;;;;;;;87.22;38.55;;;9.60;93.10;;;;;;5056749;28;20021;-52
2021/12/16 22:31:30;;;;;;;97.00;40.53;;;9.40;92.50;;;;;;5057671;28;20025;-53
2021/12/16 22:34:06;;;;;;;91.93;37.97;;;9.50;92.80;;;;;;5055669;28;20075;-52
2021/12/16 22:36:52;;;;;;;102.28;39.80;;;9.30;92.60;;;;;;5056941;28;20017;-48
2021/12/16 22:39:21;;;;;;;99.20;38.10;;;9.50;92.90;;;;;;5055694;28;20067;-53
2021/12/16 22:41:49;;;;;;;86.90;37.05;;;9.80;92.30;;;;;;5056497;28;20032;-51
2021/12/16 22:44:15;;;;;;;83.18;36.15;;;9.60;91.90;;;;;;5056600;28;20021;-50
2021/12/16 22:46:41;;;;;;;96.55;38.80;;;9.40;92.10;;;;;;5056451;28;20033;-53
2021/12/16 22:49:08;;;;;;;105.60;38.75;;;9.30;92.50;;;;;;5057195;28;20473;-51
2021/12/16 22:51:34;;;;;;;100.68;41.63;;;9.70;93.00;;;;;;5055097;28;20499;-51
2021/12/16 22:54:02;;;;;;;98.20;37.75;;;9.60;92.00;;;;;;5056893;28;20506;-53
2021/12/16 22:56:27;;;;;;;94.28;36.47;;;9.30;92.30;;;;;;5056106;28;20033;-50
2021/12/16 22:58:55;;;;;;;98.57;38.38;;;9.30;92.80;;;;;;5056182;28;20029;-52
